Arlington, New Jersey
Current Conditions -  °F | °C
As of 1:51 AM on Saturday 29 Nov 2014 (Local Time) from KEWR Reporting Station
Broken Clouds Broken Clouds  
Wind Chill: -6°   Ceiling: 25000
Heat Index: -3°   Visibility: 10mi
Dew Point: -9°   Wind: 5mph
Humidity: 63%   Direction: 260°W
Pressure: 30.31"   Gusts: NA
Location:  40.7563°N, 74.1217°W
Report Text: KEWR 290651Z 26004KT 10SM FEW100 SCT150 BKN250 M03/M09 A3031 RMK AO2 SLP264 T10331094
Loading
Personal Weather Stations






























Interactive Weather Map New forecast layout! Learn more

10-Day Weather Forecast

Advertisements
Track Severe Weather on mobile